sensor_id;sensor_type;location;lat;lon;timestamp;temperature;humidity
51011;DHT22;37038;50.182;8.624;2023-09-19T00:01:43;16.50;99.90
51011;DHT22;37038;50.182;8.624;2023-09-19T00:04:34;16.50;99.90
51011;DHT22;37038;50.182;8.624;2023-09-19T00:07:22;16.50;99.90
51011;DHT22;37038;50.182;8.624;2023-09-19T00:10:10;16.50;99.90
51011;DHT22;37038;50.182;8.624;2023-09-19T00:12:58;16.70;99.90
51011;DHT22;37038;50.182;8.624;2023-09-19T00:15:52;16.60;99.90
51011;DHT22;37038;50.182;8.624;2023-09-19T00:18:42;16.70;99.90
51011;DHT22;37038;50.182;8.624;2023-09-19T00:21:31;16.60;99.90
51011;DHT22;37038;50.182;8.624;2023-09-19T00:24:19;16.70;99.90
51011;DHT22;37038;50.182;8.624;2023-09-19T00:27:06;16.60;99.90
51011;DHT22;37038;50.182;8.624;2023-09-19T00:29:55;16.60;99.90
51011;DHT22;37038;50.182;8.624;2023-09-19T00:32:43;16.60;99.90
51011;DHT22;37038;50.182;8.624;2023-09-19T00:35:31;16.60;99.90
51011;DHT22;37038;50.182;8.624;2023-09-19T00:38:20;16.60;99.90
51011;DHT22;37038;50.182;8.624;2023-09-19T00:41:10;16.60;99.90
51011;DHT22;37038;50.182;8.624;2023-09-19T00:43:59;16.60;99.90
51011;DHT22;37038;50.182;8.624;2023-09-19T00:46:48;16.60;99.90
51011;DHT22;37038;50.182;8.624;2023-09-19T00:49:37;16.60;99.90
51011;DHT22;37038;50.182;8.624;2023-09-19T00:52:25;16.60;99.90
51011;DHT22;37038;50.182;8.624;2023-09-19T00:55:14;16.60;99.90
51011;DHT22;37038;50.182;8.624;2023-09-19T00:58:03;16.70;99.90
51011;DHT22;37038;50.182;8.624;2023-09-19T01:00:54;16.80;99.90
51011;DHT22;37038;50.182;8.624;2023-09-19T01:03:41;16.60;99.90
51011;DHT22;37038;50.182;8.624;2023-09-19T01:06:30;16.60;99.90
51011;DHT22;37038;50.182;8.624;2023-09-19T01:09:19;16.60;99.90
51011;DHT22;37038;50.182;8.624;2023-09-19T01:12:07;16.70;99.90
51011;DHT22;37038;50.182;8.624;2023-09-19T01:14:57;16.60;99.90
51011;DHT22;37038;50.182;8.624;2023-09-19T01:27:05;16.60;99.90
51011;DHT22;37038;50.182;8.624;2023-09-19T01:30:02;16.50;99.90
51011;DHT22;37038;50.182;8.624;2023-09-19T01:32:51;16.50;99.90
51011;DHT22;37038;50.182;8.624;2023-09-19T01:35:42;16.50;99.90
51011;DHT22;37038;50.182;8.624;2023-09-19T01:38:29;16.50;99.90
51011;DHT22;37038;50.182;8.624;2023-09-19T01:41:19;16.50;99.90
51011;DHT22;37038;50.182;8.624;2023-09-19T01:44:11;16.50;99.90
51011;DHT22;37038;50.182;8.624;2023-09-19T01:47:03;16.50;99.90
51011;DHT22;37038;50.182;8.624;2023-09-19T01:52:54;16.30;99.90
51011;DHT22;37038;50.182;8.624;2023-09-19T01:55:45;16.40;99.90
51011;DHT22;37038;50.182;8.624;2023-09-19T01:58:35;16.40;99.90
51011;DHT22;37038;50.182;8.624;2023-09-19T02:01:25;16.30;99.90
51011;DHT22;37038;50.182;8.624;2023-09-19T02:04:13;16.30;99.90
51011;DHT22;37038;50.182;8.624;2023-09-19T02:07:01;16.30;99.90
51011;DHT22;37038;50.182;8.624;2023-09-19T02:09:50;16.20;99.90
51011;DHT22;37038;50.182;8.624;2023-09-19T02:12:37;16.30;99.90
51011;DHT22;37038;50.182;8.624;2023-09-19T02:15:25;16.20;99.90
51011;DHT22;37038;50.182;8.624;2023-09-19T02:18:13;16.20;99.90
51011;DHT22;37038;50.182;8.624;2023-09-19T02:21:01;16.20;99.90
51011;DHT22;37038;50.182;8.624;2023-09-19T02:23:49;16.20;99.90
51011;DHT22;37038;50.182;8.624;2023-09-19T02:26:38;16.20;99.90
51011;DHT22;37038;50.182;8.624;2023-09-19T02:29:26;16.20;99.90
51011;DHT22;37038;50.182;8.624;2023-09-19T02:32:14;16.10;99.90
51011;DHT22;37038;50.182;8.624;2023-09-19T02:35:01;16.20;99.90
51011;DHT22;37038;50.182;8.624;2023-09-19T02:37:50;16.20;99.90
51011;DHT22;37038;50.182;8.624;2023-09-19T02:40:37;16.20;99.90
51011;DHT22;37038;50.182;8.624;2023-09-19T02:43:25;16.20;99.90
51011;DHT22;37038;50.182;8.624;2023-09-19T02:46:13;16.20;99.90
51011;DHT22;37038;50.182;8.624;2023-09-19T02:49:01;16.10;99.90
51011;DHT22;37038;50.182;8.624;2023-09-19T02:51:48;16.10;99.90
51011;DHT22;37038;50.182;8.624;2023-09-19T02:54:36;16.10;99.90
51011;DHT22;37038;50.182;8.624;2023-09-19T02:57:24;16.10;99.90
51011;DHT22;37038;50.182;8.624;2023-09-19T03:00:11;16.00;99.90
51011;DHT22;37038;50.182;8.624;2023-09-19T03:02:59;16.00;99.90
51011;DHT22;37038;50.182;8.624;2023-09-19T03:05:47;16.00;99.90
51011;DHT22;37038;50.182;8.624;2023-09-19T03:08:37;16.00;99.90
51011;DHT22;37038;50.182;8.624;2023-09-19T03:11:26;16.00;99.90
51011;DHT22;37038;50.182;8.624;2023-09-19T03:14:15;16.00;99.90
51011;DHT22;37038;50.182;8.624;2023-09-19T03:17:03;16.00;99.90
51011;DHT22;37038;50.182;8.624;2023-09-19T03:19:52;15.90;99.90
51011;DHT22;37038;50.182;8.624;2023-09-19T03:22:41;15.90;99.90
51011;DHT22;37038;50.182;8.624;2023-09-19T03:25:28;15.90;99.90
51011;DHT22;37038;50.182;8.624;2023-09-19T03:28:16;15.90;99.90
51011;DHT22;37038;50.182;8.624;2023-09-19T03:31:05;15.90;99.90
51011;DHT22;37038;50.182;8.624;2023-09-19T03:33:53;15.90;99.90
51011;DHT22;37038;50.182;8.624;2023-09-19T03:36:40;15.90;99.90
51011;DHT22;37038;50.182;8.624;2023-09-19T03:39:28;15.90;99.90
51011;DHT22;37038;50.182;8.624;2023-09-19T03:42:16;15.90;99.90
51011;DHT22;37038;50.182;8.624;2023-09-19T03:45:04;15.90;99.90
51011;DHT22;37038;50.182;8.624;2023-09-19T03:47:53;15.80;99.90
51011;DHT22;37038;50.182;8.624;2023-09-19T03:50:41;15.80;99.90
51011;DHT22;37038;50.182;8.624;2023-09-19T03:53:28;15.90;99.90
51011;DHT22;37038;50.182;8.624;2023-09-19T03:56:19;15.90;99.90
51011;DHT22;37038;50.182;8.624;2023-09-19T03:59:06;16.10;99.90
51011;DHT22;37038;50.182;8.624;2023-09-19T04:01:55;15.90;99.90
51011;DHT22;37038;50.182;8.624;2023-09-19T04:04:44;15.80;99.90
51011;DHT22;37038;50.182;8.624;2023-09-19T04:07:32;15.70;99.90
51011;DHT22;37038;50.182;8.624;2023-09-19T04:10:22;15.70;99.90
51011;DHT22;37038;50.182;8.624;2023-09-19T04:13:09;15.70;99.90
51011;DHT22;37038;50.182;8.624;2023-09-19T04:15:57;15.80;99.90
51011;DHT22;37038;50.182;8.624;2023-09-19T04:18:45;15.90;99.90
51011;DHT22;37038;50.182;8.624;2023-09-19T04:21:32;15.80;99.90
51011;DHT22;37038;50.182;8.624;2023-09-19T04:24:20;15.80;99.90
51011;DHT22;37038;50.182;8.624;2023-09-19T04:27:08;15.90;99.90
51011;DHT22;37038;50.182;8.624;2023-09-19T04:29:57;15.80;99.90
51011;DHT22;37038;50.182;8.624;2023-09-19T04:32:46;15.90;99.90
51011;DHT22;37038;50.182;8.624;2023-09-19T04:35:38;15.90;99.90
51011;DHT22;37038;50.182;8.624;2023-09-19T04:38:26;15.80;99.90
51011;DHT22;37038;50.182;8.624;2023-09-19T04:41:15;15.80;99.90
51011;DHT22;37038;50.182;8.624;2023-09-19T04:44:02;15.80;99.90
51011;DHT22;37038;50.182;8.624;2023-09-19T04:46:50;15.60;99.90
51011;DHT22;37038;50.182;8.624;2023-09-19T04:49:38;15.60;99.90
51011;DHT22;37038;50.182;8.624;2023-09-19T04:52:29;15.50;99.90
51011;DHT22;37038;50.182;8.624;2023-09-19T04:55:18;15.50;99.90
51011;DHT22;37038;50.182;8.624;2023-09-19T04:58:09;15.50;99.90
51011;DHT22;37038;50.182;8.624;2023-09-19T05:00:57;15.50;99.90
51011;DHT22;37038;50.182;8.624;2023-09-19T05:03:45;15.50;99.90
51011;DHT22;37038;50.182;8.624;2023-09-19T05:06:32;15.50;99.90
51011;DHT22;37038;50.182;8.624;2023-09-19T05:09:21;15.40;99.90
51011;DHT22;37038;50.182;8.624;2023-09-19T05:12:08;15.40;99.90
51011;DHT22;37038;50.182;8.624;2023-09-19T05:14:58;15.30;99.90
51011;DHT22;37038;50.182;8.624;2023-09-19T05:17:48;15.40;99.90
51011;DHT22;37038;50.182;8.624;2023-09-19T05:20:41;15.30;99.90
51011;DHT22;37038;50.182;8.624;2023-09-19T05:23:29;15.40;99.90
51011;DHT22;37038;50.182;8.624;2023-09-19T05:26:17;15.40;99.90
51011;DHT22;37038;50.182;8.624;2023-09-19T05:29:05;15.40;99.90
51011;DHT22;37038;50.182;8.624;2023-09-19T05:31:55;15.30;99.90
51011;DHT22;37038;50.182;8.624;2023-09-19T05:34:42;15.40;99.90
51011;DHT22;37038;50.182;8.624;2023-09-19T05:37:30;15.50;99.90
51011;DHT22;37038;50.182;8.624;2023-09-19T05:40:17;15.50;99.90
51011;DHT22;37038;50.182;8.624;2023-09-19T05:43:05;15.50;99.90
51011;DHT22;37038;50.182;8.624;2023-09-19T05:45:54;15.50;99.90
51011;DHT22;37038;50.182;8.624;2023-09-19T05:48:43;15.50;99.90
51011;DHT22;37038;50.182;8.624;2023-09-19T05:51:31;15.60;99.90
51011;DHT22;37038;50.182;8.624;2023-09-19T05:54:19;15.60;99.90
51011;DHT22;37038;50.182;8.624;2023-09-19T05:57:07;15.50;99.90
51011;DHT22;37038;50.182;8.624;2023-09-19T05:59:54;15.50;99.90
51011;DHT22;37038;50.182;8.624;2023-09-19T06:02:42;15.60;99.90
51011;DHT22;37038;50.182;8.624;2023-09-19T06:05:32;15.60;99.90
51011;DHT22;37038;50.182;8.624;2023-09-19T06:08:19;15.50;99.90
51011;DHT22;37038;50.182;8.624;2023-09-19T06:11:07;15.60;99.90
51011;DHT22;37038;50.182;8.624;2023-09-19T06:13:54;15.60;99.90
51011;DHT22;37038;50.182;8.624;2023-09-19T06:16:41;15.70;99.90
51011;DHT22;37038;50.182;8.624;2023-09-19T06:19:30;15.80;52.90
51011;DHT22;37038;50.182;8.624;2023-09-19T06:22:18;15.80;34.50
51011;DHT22;37038;50.182;8.624;2023-09-19T06:25:09;15.80;1.00
51011;DHT22;37038;50.182;8.624;2023-09-19T06:27:58;15.90;1.00
51011;DHT22;37038;50.182;8.624;2023-09-19T06:30:49;16.10;1.00
51011;DHT22;37038;50.182;8.624;2023-09-19T06:33:37;16.10;1.00
51011;DHT22;37038;50.182;8.624;2023-09-19T06:36:28;16.20;1.00
51011;DHT22;37038;50.182;8.624;2023-09-19T06:39:17;16.20;1.00
51011;DHT22;37038;50.182;8.624;2023-09-19T06:42:05;16.20;1.00
51011;DHT22;37038;50.182;8.624;2023-09-19T06:44:53;16.30;1.00
51011;DHT22;37038;50.182;8.624;2023-09-19T06:47:41;16.20;1.00
51011;DHT22;37038;50.182;8.624;2023-09-19T06:50:28;16.10;1.00
51011;DHT22;37038;50.182;8.624;2023-09-19T06:53:18;16.20;1.00
51011;DHT22;37038;50.182;8.624;2023-09-19T06:56:05;16.10;1.00
51011;DHT22;37038;50.182;8.624;2023-09-19T06:58:53;16.00;1.00
51011;DHT22;37038;50.182;8.624;2023-09-19T07:01:41;16.30;1.00
51011;DHT22;37038;50.182;8.624;2023-09-19T07:04:32;16.40;1.00
51011;DHT22;37038;50.182;8.624;2023-09-19T07:07:20;16.30;1.00
51011;DHT22;37038;50.182;8.624;2023-09-19T07:10:10;16.40;1.00
51011;DHT22;37038;50.182;8.624;2023-09-19T07:13:05;16.30;1.00
51011;DHT22;37038;50.182;8.624;2023-09-19T07:16:27;16.70;1.00
51011;DHT22;37038;50.182;8.624;2023-09-19T07:19:32;16.70;1.00
51011;DHT22;37038;50.182;8.624;2023-09-19T07:22:20;16.80;1.00
51011;DHT22;37038;50.182;8.624;2023-09-19T07:25:30;16.90;1.00
51011;DHT22;37038;50.182;8.624;2023-09-19T07:28:42;17.00;1.00
51011;DHT22;37038;50.182;8.624;2023-09-19T07:31:47;16.90;1.00
51011;DHT22;37038;50.182;8.624;2023-09-19T07:34:39;17.00;1.00
51011;DHT22;37038;50.182;8.624;2023-09-19T07:37:41;17.30;99.90
51011;DHT22;37038;50.182;8.624;2023-09-19T07:40:43;17.30;1.00
51011;DHT22;37038;50.182;8.624;2023-09-19T07:43:35;17.00;1.00
51011;DHT22;37038;50.182;8.624;2023-09-19T07:46:31;16.80;1.00
51011;DHT22;37038;50.182;8.624;2023-09-19T07:49:34;16.70;1.00
51011;DHT22;37038;50.182;8.624;2023-09-19T07:52:28;17.20;1.00
51011;DHT22;37038;50.182;8.624;2023-09-19T07:55:21;16.90;1.00
51011;DHT22;37038;50.182;8.624;2023-09-19T07:58:18;17.50;99.90
51011;DHT22;37038;50.182;8.624;2023-09-19T08:01:19;17.10;99.90
51011;DHT22;37038;50.182;8.624;2023-09-19T08:04:16;17.30;99.90
51011;DHT22;37038;50.182;8.624;2023-09-19T08:07:15;17.10;99.90
51011;DHT22;37038;50.182;8.624;2023-09-19T08:10:07;17.30;99.90
51011;DHT22;37038;50.182;8.624;2023-09-19T08:13:04;17.10;1.00
51011;DHT22;37038;50.182;8.624;2023-09-19T08:15:53;17.80;1.00
51011;DHT22;37038;50.182;8.624;2023-09-19T08:18:47;17.80;99.90
51011;DHT22;37038;50.182;8.624;2023-09-19T08:21:47;18.10;99.90
51011;DHT22;37038;50.182;8.624;2023-09-19T08:24:46;17.70;1.00
51011;DHT22;37038;50.182;8.624;2023-09-19T08:27:37;17.60;1.00
51011;DHT22;37038;50.182;8.624;2023-09-19T08:30:27;17.20;1.00
51011;DHT22;37038;50.182;8.624;2023-09-19T08:33:17;17.70;1.00
51011;DHT22;37038;50.182;8.624;2023-09-19T08:36:08;18.30;1.00
51011;DHT22;37038;50.182;8.624;2023-09-19T08:39:04;18.70;99.90
51011;DHT22;37038;50.182;8.624;2023-09-19T08:41:59;19.40;99.90
51011;DHT22;37038;50.182;8.624;2023-09-19T08:44:50;18.50;1.00
51011;DHT22;37038;50.182;8.624;2023-09-19T08:47:41;18.60;99.90
51011;DHT22;37038;50.182;8.624;2023-09-19T08:50:31;18.50;99.90
51011;DHT22;37038;50.182;8.624;2023-09-19T08:53:27;19.10;1.00
51011;DHT22;37038;50.182;8.624;2023-09-19T08:56:22;19.30;1.00
51011;DHT22;37038;50.182;8.624;2023-09-19T08:59:23;19.00;1.00
51011;DHT22;37038;50.182;8.624;2023-09-19T09:02:18;18.90;1.00
51011;DHT22;37038;50.182;8.624;2023-09-19T09:05:22;18.70;1.00
51011;DHT22;37038;50.182;8.624;2023-09-19T09:08:14;19.60;1.00
51011;DHT22;37038;50.182;8.624;2023-09-19T09:11:02;19.00;1.00
51011;DHT22;37038;50.182;8.624;2023-09-19T09:13:50;19.40;1.00
51011;DHT22;37038;50.182;8.624;2023-09-19T09:16:38;18.90;1.00
51011;DHT22;37038;50.182;8.624;2023-09-19T09:19:29;18.90;1.00
51011;DHT22;37038;50.182;8.624;2023-09-19T09:22:23;18.60;1.00
51011;DHT22;37038;50.182;8.624;2023-09-19T09:25:15;18.50;1.00
51011;DHT22;37038;50.182;8.624;2023-09-19T09:28:05;18.70;1.00
51011;DHT22;37038;50.182;8.624;2023-09-19T09:30:54;18.80;1.00
51011;DHT22;37038;50.182;8.624;2023-09-19T09:33:52;19.10;1.00
51011;DHT22;37038;50.182;8.624;2023-09-19T09:36:45;19.20;1.00
51011;DHT22;37038;50.182;8.624;2023-09-19T09:39:35;19.40;1.00
51011;DHT22;37038;50.182;8.624;2023-09-19T09:42:30;18.90;1.00
51011;DHT22;37038;50.182;8.624;2023-09-19T09:45:25;19.20;1.00
51011;DHT22;37038;50.182;8.624;2023-09-19T09:48:25;19.80;1.00
51011;DHT22;37038;50.182;8.624;2023-09-19T09:51:29;20.10;1.00
51011;DHT22;37038;50.182;8.624;2023-09-19T09:54:23;19.60;99.90
51011;DHT22;37038;50.182;8.624;2023-09-19T09:57:13;20.40;99.90
51011;DHT22;37038;50.182;8.624;2023-09-19T10:00:03;19.80;99.90
51011;DHT22;37038;50.182;8.624;2023-09-19T10:03:00;19.60;99.90
51011;DHT22;37038;50.182;8.624;2023-09-19T10:05:53;19.90;99.90
51011;DHT22;37038;50.182;8.624;2023-09-19T10:12:08;19.70;99.90
51011;DHT22;37038;50.182;8.624;2023-09-19T10:14:59;20.50;99.90
51011;DHT22;37038;50.182;8.624;2023-09-19T10:17:56;20.50;99.90
51011;DHT22;37038;50.182;8.624;2023-09-19T10:20:51;20.40;99.90
51011;DHT22;37038;50.182;8.624;2023-09-19T10:23:40;21.10;99.90
51011;DHT22;37038;50.182;8.624;2023-09-19T10:26:31;20.60;99.90
51011;DHT22;37038;50.182;8.624;2023-09-19T10:29:19;21.10;99.90
51011;DHT22;37038;50.182;8.624;2023-09-19T10:32:12;21.10;99.90
51011;DHT22;37038;50.182;8.624;2023-09-19T10:35:06;20.50;99.90
51011;DHT22;37038;50.182;8.624;2023-09-19T10:37:57;20.30;99.90
51011;DHT22;37038;50.182;8.624;2023-09-19T10:40:49;20.50;99.90
51011;DHT22;37038;50.182;8.624;2023-09-19T10:43:41;20.50;99.90
51011;DHT22;37038;50.182;8.624;2023-09-19T10:46:32;21.10;99.90
51011;DHT22;37038;50.182;8.624;2023-09-19T10:49:32;20.90;99.90
51011;DHT22;37038;50.182;8.624;2023-09-19T10:52:37;21.00;99.90
51011;DHT22;37038;50.182;8.624;2023-09-19T10:55:26;21.00;99.90
51011;DHT22;37038;50.182;8.624;2023-09-19T10:58:24;20.20;99.90
51011;DHT22;37038;50.182;8.624;2023-09-19T11:01:15;21.20;99.90
51011;DHT22;37038;50.182;8.624;2023-09-19T11:04:20;20.80;99.90
51011;DHT22;37038;50.182;8.624;2023-09-19T11:07:13;21.40;99.90
51011;DHT22;37038;50.182;8.624;2023-09-19T11:10:04;21.50;99.90
51011;DHT22;37038;50.182;8.624;2023-09-19T11:12:53;21.30;99.90
51011;DHT22;37038;50.182;8.624;2023-09-19T11:24:28;21.60;99.90
51011;DHT22;37038;50.182;8.624;2023-09-19T11:27:18;22.20;99.90
51011;DHT22;37038;50.182;8.624;2023-09-19T11:30:27;21.50;99.90
51011;DHT22;37038;50.182;8.624;2023-09-19T11:33:26;22.10;99.90
51011;DHT22;37038;50.182;8.624;2023-09-19T11:36:37;21.10;99.90
51011;DHT22;37038;50.182;8.624;2023-09-19T11:39:25;21.50;99.90
51011;DHT22;37038;50.182;8.624;2023-09-19T11:48:39;21.90;93.90
51011;DHT22;37038;50.182;8.624;2023-09-19T11:51:29;21.80;92.70
51011;DHT22;37038;50.182;8.624;2023-09-19T11:54:27;22.00;96.50
51011;DHT22;37038;50.182;8.624;2023-09-19T11:57:20;22.00;97.10
51011;DHT22;37038;50.182;8.624;2023-09-19T12:00:17;22.50;96.60
51011;DHT22;37038;50.182;8.624;2023-09-19T12:03:08;23.80;78.40
51011;DHT22;37038;50.182;8.624;2023-09-19T12:05:57;21.30;84.90
51011;DHT22;37038;50.182;8.624;2023-09-19T12:08:45;21.80;83.10
51011;DHT22;37038;50.182;8.624;2023-09-19T12:11:40;22.00;74.10
51011;DHT22;37038;50.182;8.624;2023-09-19T12:14:31;22.80;71.10
51011;DHT22;37038;50.182;8.624;2023-09-19T12:17:23;23.50;51.50
51011;DHT22;37038;50.182;8.624;2023-09-19T12:20:25;23.40;41.40
51011;DHT22;37038;50.182;8.624;2023-09-19T12:23:21;22.80;38.80
51011;DHT22;37038;50.182;8.624;2023-09-19T12:26:12;22.90;34.50
51011;DHT22;37038;50.182;8.624;2023-09-19T12:29:04;22.00;43.10
51011;DHT22;37038;50.182;8.624;2023-09-19T12:31:57;21.90;46.10
51011;DHT22;37038;50.182;8.624;2023-09-19T12:34:54;21.80;46.40
51011;DHT22;37038;50.182;8.624;2023-09-19T12:37:43;22.90;38.60
51011;DHT22;37038;50.182;8.624;2023-09-19T12:40:36;21.70;45.40
51011;DHT22;37038;50.182;8.624;2023-09-19T12:43:26;21.20;41.50
51011;DHT22;37038;50.182;8.624;2023-09-19T12:46:19;20.90;49.20
51011;DHT22;37038;50.182;8.624;2023-09-19T12:49:18;22.80;35.40
51011;DHT22;37038;50.182;8.624;2023-09-19T12:52:06;22.80;32.30
51011;DHT22;37038;50.182;8.624;2023-09-19T12:54:53;22.90;24.20
51011;DHT22;37038;50.182;8.624;2023-09-19T12:57:43;22.60;19.70
51011;DHT22;37038;50.182;8.624;2023-09-19T13:00:39;21.70;26.00
51011;DHT22;37038;50.182;8.624;2023-09-19T13:03:28;21.80;24.70
51011;DHT22;37038;50.182;8.624;2023-09-19T13:06:35;22.50;22.50
51011;DHT22;37038;50.182;8.624;2023-09-19T13:09:27;22.60;26.10
51011;DHT22;37038;50.182;8.624;2023-09-19T13:12:35;21.40;26.30
51011;DHT22;37038;50.182;8.624;2023-09-19T13:15:24;22.80;20.90
51011;DHT22;37038;50.182;8.624;2023-09-19T13:18:14;22.20;25.60
51011;DHT22;37038;50.182;8.624;2023-09-19T13:21:06;22.30;9.80
51011;DHT22;37038;50.182;8.624;2023-09-19T13:27:05;23.30;4.90
51011;DHT22;37038;50.182;8.624;2023-09-19T13:29:54;22.50;4.00
51011;DHT22;37038;50.182;8.624;2023-09-19T13:32:45;22.40;4.20
51011;DHT22;37038;50.182;8.624;2023-09-19T13:35:41;22.20;4.20
51011;DHT22;37038;50.182;8.624;2023-09-19T13:38:29;22.10;5.90
51011;DHT22;37038;50.182;8.624;2023-09-19T13:41:17;21.80;11.20
51011;DHT22;37038;50.182;8.624;2023-09-19T13:44:04;21.70;9.50
51011;DHT22;37038;50.182;8.624;2023-09-19T13:46:52;21.30;13.20
51011;DHT22;37038;50.182;8.624;2023-09-19T13:49:42;21.50;13.90
51011;DHT22;37038;50.182;8.624;2023-09-19T13:52:30;21.60;10.10
51011;DHT22;37038;50.182;8.624;2023-09-19T13:55:18;21.90;12.90
51011;DHT22;37038;50.182;8.624;2023-09-19T13:58:08;22.20;11.80
51011;DHT22;37038;50.182;8.624;2023-09-19T14:00:59;23.00;10.60
51011;DHT22;37038;50.182;8.624;2023-09-19T14:03:48;23.40;1.90
51011;DHT22;37038;50.182;8.624;2023-09-19T14:06:37;22.60;1.70
51011;DHT22;37038;50.182;8.624;2023-09-19T14:09:24;22.20;2.20
51011;DHT22;37038;50.182;8.624;2023-09-19T14:12:12;22.20;9.40
51011;DHT22;37038;50.182;8.624;2023-09-19T14:15:01;22.70;9.30
51011;DHT22;37038;50.182;8.624;2023-09-19T14:17:48;22.60;4.10
51011;DHT22;37038;50.182;8.624;2023-09-19T14:20:38;22.30;1.00
51011;DHT22;37038;50.182;8.624;2023-09-19T14:23:26;22.60;3.70
51011;DHT22;37038;50.182;8.624;2023-09-19T14:26:13;21.80;4.70
51011;DHT22;37038;50.182;8.624;2023-09-19T14:29:03;21.60;5.70
51011;DHT22;37038;50.182;8.624;2023-09-19T14:31:51;22.30;5.30
51011;DHT22;37038;50.182;8.624;2023-09-19T14:34:39;22.20;6.00
51011;DHT22;37038;50.182;8.624;2023-09-19T14:37:30;22.70;6.10
51011;DHT22;37038;50.182;8.624;2023-09-19T14:40:18;22.20;4.50
51011;DHT22;37038;50.182;8.624;2023-09-19T14:43:06;22.00;5.70
51011;DHT22;37038;50.182;8.624;2023-09-19T14:45:56;21.50;8.80
51011;DHT22;37038;50.182;8.624;2023-09-19T14:48:46;22.10;7.90
51011;DHT22;37038;50.182;8.624;2023-09-19T14:51:38;22.40;3.40
51011;DHT22;37038;50.182;8.624;2023-09-19T14:54:28;22.90;1.00
51011;DHT22;37038;50.182;8.624;2023-09-19T14:57:16;22.40;1.00
51011;DHT22;37038;50.182;8.624;2023-09-19T15:00:04;23.70;1.00
51011;DHT22;37038;50.182;8.624;2023-09-19T15:02:53;22.40;1.00
51011;DHT22;37038;50.182;8.624;2023-09-19T15:05:42;22.00;1.00
51011;DHT22;37038;50.182;8.624;2023-09-19T15:08:31;21.60;12.50
51011;DHT22;37038;50.182;8.624;2023-09-19T15:11:19;21.40;1.00
51011;DHT22;37038;50.182;8.624;2023-09-19T15:14:07;21.30;1.00
51011;DHT22;37038;50.182;8.624;2023-09-19T15:16:55;21.00;1.00
51011;DHT22;37038;50.182;8.624;2023-09-19T15:19:42;21.00;4.10
51011;DHT22;37038;50.182;8.624;2023-09-19T15:22:30;21.00;5.00
51011;DHT22;37038;50.182;8.624;2023-09-19T15:25:17;21.10;6.90
51011;DHT22;37038;50.182;8.624;2023-09-19T15:28:05;21.60;3.60
51011;DHT22;37038;50.182;8.624;2023-09-19T15:31:02;22.10;2.30
51011;DHT22;37038;50.182;8.624;2023-09-19T15:33:50;22.20;1.00
51011;DHT22;37038;50.182;8.624;2023-09-19T15:36:37;22.20;1.00
51011;DHT22;37038;50.182;8.624;2023-09-19T15:39:29;21.70;6.10
51011;DHT22;37038;50.182;8.624;2023-09-19T15:42:22;21.50;9.80
51011;DHT22;37038;50.182;8.624;2023-09-19T15:45:10;21.20;13.00
51011;DHT22;37038;50.182;8.624;2023-09-19T15:47:58;21.40;15.50
51011;DHT22;37038;50.182;8.624;2023-09-19T15:50:45;21.00;16.40
51011;DHT22;37038;50.182;8.624;2023-09-19T15:53:43;21.20;15.90
51011;DHT22;37038;50.182;8.624;2023-09-19T15:56:32;21.80;15.60
51011;DHT22;37038;50.182;8.624;2023-09-19T15:59:20;21.90;11.50
51011;DHT22;37038;50.182;8.624;2023-09-19T16:02:08;21.50;15.10
51011;DHT22;37038;50.182;8.624;2023-09-19T16:04:55;21.70;16.50
51011;DHT22;37038;50.182;8.624;2023-09-19T16:07:43;22.10;15.00
51011;DHT22;37038;50.182;8.624;2023-09-19T16:10:35;22.00;15.30
51011;DHT22;37038;50.182;8.624;2023-09-19T16:13:23;22.10;29.90
51011;DHT22;37038;50.182;8.624;2023-09-19T16:16:11;21.70;16.40
51011;DHT22;37038;50.182;8.624;2023-09-19T16:19:00;22.00;15.30
51011;DHT22;37038;50.182;8.624;2023-09-19T16:21:50;21.80;17.70
51011;DHT22;37038;50.182;8.624;2023-09-19T16:24:38;21.30;18.70
51011;DHT22;37038;50.182;8.624;2023-09-19T16:27:25;21.40;26.20
51011;DHT22;37038;50.182;8.624;2023-09-19T16:30:13;21.60;26.20
51011;DHT22;37038;50.182;8.624;2023-09-19T16:33:00;21.10;31.20
51011;DHT22;37038;50.182;8.624;2023-09-19T16:35:49;20.70;35.40
51011;DHT22;37038;50.182;8.624;2023-09-19T16:38:37;20.50;42.90
51011;DHT22;37038;50.182;8.624;2023-09-19T16:41:25;20.60;43.10
51011;DHT22;37038;50.182;8.624;2023-09-19T16:44:13;20.60;46.20
51011;DHT22;37038;50.182;8.624;2023-09-19T16:47:01;20.60;51.10
51011;DHT22;37038;50.182;8.624;2023-09-19T16:49:50;20.70;53.60
51011;DHT22;37038;50.182;8.624;2023-09-19T16:52:40;20.60;56.50
51011;DHT22;37038;50.182;8.624;2023-09-19T16:55:27;20.30;59.70
51011;DHT22;37038;50.182;8.624;2023-09-19T16:58:15;20.10;67.70
51011;DHT22;37038;50.182;8.624;2023-09-19T17:01:02;20.20;78.30
51011;DHT22;37038;50.182;8.624;2023-09-19T17:03:50;20.20;80.30
51011;DHT22;37038;50.182;8.624;2023-09-19T17:06:38;20.20;81.10
51011;DHT22;37038;50.182;8.624;2023-09-19T17:09:26;20.10;84.80
51011;DHT22;37038;50.182;8.624;2023-09-19T17:12:14;20.00;91.00
51011;DHT22;37038;50.182;8.624;2023-09-19T17:15:01;19.90;95.60
51011;DHT22;37038;50.182;8.624;2023-09-19T17:17:49;19.80;98.90
51011;DHT22;37038;50.182;8.624;2023-09-19T17:20:40;19.80;99.90
51011;DHT22;37038;50.182;8.624;2023-09-19T17:23:28;19.80;99.90
51011;DHT22;37038;50.182;8.624;2023-09-19T17:26:17;19.70;99.90
51011;DHT22;37038;50.182;8.624;2023-09-19T17:29:05;19.60;99.90
51011;DHT22;37038;50.182;8.624;2023-09-19T17:31:54;19.60;99.90
51011;DHT22;37038;50.182;8.624;2023-09-19T17:34:41;19.50;99.90
51011;DHT22;37038;50.182;8.624;2023-09-19T17:37:29;19.40;99.90
51011;DHT22;37038;50.182;8.624;2023-09-19T17:40:16;19.50;99.90
51011;DHT22;37038;50.182;8.624;2023-09-19T17:43:04;19.40;99.90
51011;DHT22;37038;50.182;8.624;2023-09-19T17:45:52;19.40;99.90
51011;DHT22;37038;50.182;8.624;2023-09-19T17:48:43;19.50;99.90
51011;DHT22;37038;50.182;8.624;2023-09-19T17:51:32;19.40;99.90
51011;DHT22;37038;50.182;8.624;2023-09-19T17:54:20;19.50;99.90
51011;DHT22;37038;50.182;8.624;2023-09-19T17:57:10;19.50;99.90
51011;DHT22;37038;50.182;8.624;2023-09-19T17:59:57;19.40;99.90
51011;DHT22;37038;50.182;8.624;2023-09-19T18:02:46;19.40;99.90
51011;DHT22;37038;50.182;8.624;2023-09-19T18:05:34;19.30;99.90
51011;DHT22;37038;50.182;8.624;2023-09-19T18:08:22;19.40;99.90
51011;DHT22;37038;50.182;8.624;2023-09-19T18:11:14;19.30;99.90
51011;DHT22;37038;50.182;8.624;2023-09-19T18:14:03;19.30;99.90
51011;DHT22;37038;50.182;8.624;2023-09-19T18:16:50;19.30;99.90
51011;DHT22;37038;50.182;8.624;2023-09-19T18:19:42;19.20;99.90
51011;DHT22;37038;50.182;8.624;2023-09-19T18:22:30;19.20;99.90
51011;DHT22;37038;50.182;8.624;2023-09-19T18:25:21;19.20;99.90
51011;DHT22;37038;50.182;8.624;2023-09-19T18:28:08;19.10;99.90
51011;DHT22;37038;50.182;8.624;2023-09-19T18:30:56;19.00;99.90
51011;DHT22;37038;50.182;8.624;2023-09-19T18:33:46;19.00;99.90
51011;DHT22;37038;50.182;8.624;2023-09-19T18:36:36;19.00;99.90